Time;durP1;ratioP1;P1;durP2;ratioP2;P2;SDS_P1;SDS_P2;PMS_P1;PMS_P2;Temp;Humidity;BMP_temperature;BMP_pressure;BME280_temperature;BME280_humidity;BME280_pressure;Samples;Min_cycle;Max_cycle;Signal;HPM_P1;HPM_P2
2023/01/04 00:02:01;;;;;;;13.20;9.23;;;;;;;6.69;73.39;95743.03;4967435;28;20031;-79
2023/01/04 00:04:27;;;;;;;14.77;9.63;;;;;;;6.67;73.15;95742.25;4968893;28;20039;-79
2023/01/04 00:06:52;;;;;;;14.27;9.13;;;;;;;6.85;72.48;95758.56;4968479;28;20409;-79
2023/01/04 00:09:19;;;;;;;12.15;8.63;;;;;;;6.70;73.11;95755.00;4967481;28;20055;-79
2023/01/04 00:11:44;;;;;;;12.18;9.68;;;;;;;6.68;73.41;95756.00;4970752;28;20034;-79
2023/01/04 00:14:10;;;;;;;12.13;9.18;;;;;;;6.80;73.04;95754.50;4953937;28;20038;-79
2023/01/04 00:16:35;;;;;;;12.93;9.73;;;;;;;6.80;73.59;95755.38;4954539;28;20554;-78
2023/01/04 00:19:02;;;;;;;14.30;9.85;;;;;;;6.80;73.34;95755.38;4972199;28;20027;-79
2023/01/04 00:21:28;;;;;;;13.32;8.60;;;;;;;6.75;73.38;95751.38;4952998;28;20031;-79
2023/01/04 00:23:55;;;;;;;11.30;8.00;;;;;;;6.71;73.20;95746.38;4935587;29;20043;-78
2023/01/04 00:26:23;;;;;;;15.63;9.93;;;;;;;6.70;74.26;95747.25;4935818;29;20027;-78
2023/01/04 00:28:55;;;;;;;14.95;9.20;;;;;;;6.61;74.01;95739.19;4942626;28;20038;-79
2023/01/04 00:31:20;;;;;;;14.77;9.10;;;;;;;6.70;74.07;95749.00;4971485;28;20110;-79
2023/01/04 00:33:46;;;;;;;13.40;9.20;;;;;;;6.62;74.31;95749.41;4971236;28;20039;-79
2023/01/04 00:36:12;;;;;;;13.93;9.48;;;;;;;6.68;75.18;95751.66;4953260;29;20524;-79
2023/01/04 00:38:38;;;;;;;12.63;8.90;;;;;;;6.72;74.49;95754.94;4935346;29;20031;-79
2023/01/04 00:41:04;;;;;;;14.50;9.05;;;;;;;6.75;73.89;95749.63;4951972;29;20062;-78
2023/01/04 00:43:29;;;;;;;14.38;10.93;;;;;;;6.79;73.88;95764.00;4951639;28;20040;-79
2023/01/04 00:45:55;;;;;;;15.90;10.50;;;;;;;6.76;73.29;95763.34;4967798;28;20509;-78
2023/01/04 00:48:20;;;;;;;14.55;10.35;;;;;;;6.62;74.03;95761.50;4951747;29;20426;-78
2023/01/04 00:50:46;;;;;;;15.05;9.95;;;;;;;6.61;74.26;95760.66;4956464;28;20515;-78
2023/01/04 00:53:12;;;;;;;12.20;9.15;;;;;;;6.77;73.75;95762.44;4955051;28;20515;-78
2023/01/04 00:55:37;;;;;;;12.23;9.35;;;;;;;6.70;73.70;95764.50;4955202;28;20483;-78
2023/01/04 00:58:03;;;;;;;12.82;9.02;;;;;;;6.68;73.65;95767.16;4954647;28;20054;-79
2023/01/04 01:00:29;;;;;;;13.80;9.75;;;;;;;6.68;74.09;95772.31;4971185;28;20053;-79
2023/01/04 01:02:54;;;;;;;14.75;9.98;;;;;;;6.74;74.35;95768.59;4972101;28;20039;-79
2023/01/04 01:05:20;;;;;;;18.45;9.88;;;;;;;6.72;73.27;95776.44;4972550;28;20039;-79
2023/01/04 01:07:45;;;;;;;14.50;9.65;;;;;;;6.65;73.97;95772.50;4970704;28;20035;-78
2023/01/04 01:10:10;;;;;;;15.50;10.48;;;;;;;6.62;74.22;95767.47;4971130;28;20035;-79
2023/01/04 01:12:36;;;;;;;17.13;11.32;;;;;;;6.83;73.79;95777.63;4951546;28;20133;-78
2023/01/04 01:15:01;;;;;;;13.65;9.90;;;;;;;6.78;74.00;95777.84;4965543;28;20452;-78
2023/01/04 01:17:27;;;;;;;14.93;10.52;;;;;;;6.83;74.19;95785.38;4950513;28;20019;-79
2023/01/04 01:19:52;;;;;;;13.40;9.65;;;;;;;6.99;73.45;95785.38;4954945;28;20436;-79
2023/01/04 01:22:18;;;;;;;13.43;9.50;;;;;;;7.03;73.09;95787.72;4956438;28;20394;-79
2023/01/04 01:24:43;;;;;;;14.35;9.95;;;;;;;6.96;72.94;95777.78;4972742;28;20093;-78
2023/01/04 01:27:09;;;;;;;12.93;9.90;;;;;;;6.95;73.35;95784.72;4964255;28;20030;-79
2023/01/04 01:29:34;;;;;;;14.10;9.88;;;;;;;6.99;73.17;95791.38;4974763;28;20031;-79
2023/01/04 01:31:59;;;;;;;15.10;9.82;;;;;;;6.83;73.30;95777.63;4973635;28;20027;-78
2023/01/04 01:34:25;;;;;;;17.92;10.68;;;;;;;6.96;73.14;95783.78;4955127;28;20031;-78
2023/01/04 01:36:50;;;;;;;15.15;9.77;;;;;;;7.10;72.55;95778.75;4956466;28;20090;-79
2023/01/04 01:39:16;;;;;;;11.68;9.10;;;;;;;7.03;71.55;95761.88;4957682;28;20102;-79
2023/01/04 01:41:41;;;;;;;14.82;10.32;;;;;;;6.91;71.64;95776.31;4973476;28;20035;-79
2023/01/04 01:44:31;;;;;;;12.50;9.32;;;;;;;6.96;71.57;95785.53;4973736;28;20066;-78
2023/01/04 01:46:57;;;;;;;13.10;9.70;;;;;;;6.92;72.00;95759.03;4974339;28;20085;-79
2023/01/04 01:49:24;;;;;;;16.30;10.35;;;;;;;6.91;72.44;95776.31;4974268;28;20042;-79
2023/01/04 01:51:49;;;;;;;14.95;10.70;;;;;;;6.86;72.38;95777.47;4973892;28;20023;-78
2023/01/04 01:54:19;;;;;;;15.07;10.30;;;;;;;6.84;72.55;95772.38;4942020;28;20129;-78
2023/01/04 01:56:45;;;;;;;14.93;9.82;;;;;;;6.78;71.92;95761.53;4958014;28;20031;-79
2023/01/04 01:59:10;;;;;;;16.30;10.93;;;;;;;6.63;73.44;95770.91;4954931;28;20058;-79
2023/01/04 02:01:39;;;;;;;14.45;9.80;;;;;;;6.62;73.36;95748.59;4954905;28;20039;-79
2023/01/04 02:04:04;;;;;;;14.43;9.75;;;;;;;6.67;73.13;95760.34;4956128;29;20035;-79
2023/01/04 02:06:32;;;;;;;14.25;9.63;;;;;;;6.70;73.37;95762.75;4939712;29;20031;-79
2023/01/04 02:08:57;;;;;;;14.35;9.75;;;;;;;6.72;72.92;95762.69;4938598;29;20054;-79
2023/01/04 02:11:22;;;;;;;13.65;9.88;;;;;;;6.63;72.78;95747.66;4954662;28;20486;-78
2023/01/04 02:16:57;;;;;;;16.20;10.35;;;;;;;6.70;73.19;95764.50;4954875;29;20037;-79
2023/01/04 02:19:37;;;;;;;15.40;10.95;;;;;;;6.70;73.71;95762.75;4956006;28;20239;-78
2023/01/04 02:22:02;;;;;;;17.23;11.35;;;;;;;6.74;73.13;95754.84;4954428;28;20023;-78
2023/01/04 02:24:31;;;;;;;16.17;9.93;;;;;;;6.78;73.14;95757.19;4955830;28;20046;-79
2023/01/04 02:27:16;;;;;;;15.95;10.35;;;;;;;6.74;73.51;95765.16;4955685;29;20532;-79
2023/01/04 02:29:48;;;;;;;14.35;10.30;;;;;;;6.69;73.49;95758.50;4973631;28;20086;-78
2023/01/04 02:32:25;;;;;;;13.85;10.05;;;;;;;6.63;73.65;95756.25;4973756;28;20030;-78
2023/01/04 02:35:38;;;;;;;15.15;10.65;;;;;;;6.63;73.11;95758.84;4956756;28;20042;-78
2023/01/04 02:38:12;;;;;;;16.45;10.23;;;;;;;6.49;73.52;95738.03;4970345;28;20126;-79
2023/01/04 02:40:56;;;;;;;15.52;10.98;;;;;;;6.65;73.44;95754.41;4941644;28;20070;-79
2023/01/04 02:46:20;;;;;;;13.18;9.77;;;;;;;6.71;72.88;95743.78;4954646;28;20041;-79
2023/01/04 02:51:34;;;;;;;19.08;11.23;;;;;;;6.61;73.19;95744.34;4954831;29;20042;-79
2023/01/04 02:54:07;;;;;;;15.88;10.73;;;;;;;6.58;73.26;95740.16;4954228;28;20042;-78
2023/01/04 02:56:35;;;;;;;18.02;10.48;;;;;;;6.57;74.45;95742.81;4959720;28;20080;-79
2023/01/04 02:59:01;;;;;;;13.35;9.57;;;;;;;6.63;73.80;95747.66;4974540;28;20061;-79
2023/01/04 03:07:40;;;;;;;13.00;9.32;;;;;;;6.63;71.78;95747.66;4974474;28;20041;-79
2023/01/04 03:10:37;;;;;;;11.75;8.88;;;;;;;6.37;71.61;95725.78;4973307;28;20568;-79
2023/01/04 03:13:41;;;;;;;13.60;9.27;;;;;;;6.37;72.01;95749.84;4971091;28;20038;-78
2023/01/04 03:16:09;;;;;;;12.32;8.52;;;;;;;6.35;71.92;95753.41;4956902;28;20031;-78
2023/01/04 03:18:37;;;;;;;13.75;8.85;;;;;;;6.31;71.08;95742.44;4956698;28;20034;-79
2023/01/04 03:21:03;;;;;;;11.00;8.05;;;;;;;6.22;71.60;95759.22;4972954;28;20126;-79
2023/01/04 03:35:27;;;;;;;15.23;10.73;;;;;;;5.73;74.08;95771.91;4953168;29;20038;-78
2023/01/04 03:43:08;;;;;;;12.85;8.90;;;;;;;5.74;73.97;95770.16;4952168;28;20490;-79
2023/01/04 03:49:12;;;;;;;17.45;11.18;;;;;;;5.44;74.01;95773.34;4966799;28;20464;-79
2023/01/04 03:51:38;;;;;;;14.23;9.30;;;;;;;5.51;74.10;95768.72;4961215;28;20042;-79
2023/01/04 03:54:13;;;;;;;14.55;9.45;;;;;;;5.42;73.96;95756.28;4970559;28;20042;-79
2023/01/04 03:56:42;;;;;;;16.77;10.32;;;;;;;5.34;73.87;95770.34;4955478;28;20202;-79
2023/01/04 03:59:08;;;;;;;13.85;9.18;;;;;;;5.16;74.10;95760.91;4966858;28;20055;-79
2023/01/04 04:01:34;;;;;;;14.27;9.65;;;;;;;5.31;75.23;95773.06;4951887;28;20446;-78
2023/01/04 04:09:27;;;;;;;14.15;10.18;;;;;;;5.11;75.56;95778.31;4972002;28;20097;-79
2023/01/04 04:11:53;;;;;;;20.33;11.73;;;;;;;5.05;75.18;95778.59;4972885;28;20030;-79
2023/01/04 04:14:18;;;;;;;16.63;10.90;;;;;;;5.00;75.55;95783.94;4955264;28;20035;-79
2023/01/04 04:16:43;;;;;;;17.52;11.35;;;;;;;5.03;76.24;95785.56;4988157;28;20035;-79
2023/01/04 04:19:09;;;;;;;17.15;11.30;;;;;;;5.02;76.37;95794.19;4973308;28;20421;-79
2023/01/04 04:21:35;;;;;;;15.60;10.48;;;;;;;5.00;76.43;95788.28;4987954;28;20039;-79
2023/01/04 04:24:00;;;;;;;15.65;12.02;;;;;;;4.99;76.82;95797.75;4971584;28;20500;-79
2023/01/04 04:26:25;;;;;;;19.35;12.77;;;;;;;4.98;76.00;95790.06;4972176;28;20050;-79
2023/01/04 04:28:51;;;;;;;19.95;13.20;;;;;;;4.98;75.81;95797.81;4939886;28;20041;-79
2023/01/04 04:31:17;;;;;;;16.60;11.45;;;;;;;5.01;75.65;95798.50;4955734;28;20030;-78
2023/01/04 04:33:42;;;;;;;82.93;41.00;;;;;;;4.80;75.82;95784.84;4953835;28;20485;-79
2023/01/04 04:36:08;;;;;;;39.08;24.65;;;;;;;4.87;75.70;95796.53;4977778;28;20034;-79
2023/01/04 04:38:34;;;;;;;25.75;17.83;;;;;;;4.81;75.94;95795.97;4952562;28;20027;-78
2023/01/04 04:43:48;;;;;;;18.80;12.18;;;;;;;4.98;76.98;95797.81;4954759;28;20042;-79
2023/01/04 04:46:14;;;;;;;19.60;11.27;;;;;;;4.88;80.17;95794.81;4952019;28;20031;-79
2023/01/04 04:48:39;;;;;;;29.85;21.45;;;;;;;5.23;79.44;95803.50;4953408;28;20043;-79
2023/01/04 04:51:04;;;;;;;35.60;25.95;;;;;;;5.29;78.33;95803.25;4953336;28;20027;-79
2023/01/04 04:53:30;;;;;;;26.88;19.63;;;;;;;5.41;77.07;95801.00;4951982;28;20045;-79
2023/01/04 04:55:55;;;;;;;25.55;17.60;;;;;;;5.45;76.42;95810.25;4964481;28;20034;-79
2023/01/04 04:58:21;;;;;;;21.02;14.85;;;;;;;5.45;75.97;95797.34;4964390;28;20055;-79
2023/01/04 05:00:47;;;;;;;19.95;12.85;;;;;;;5.49;76.24;95810.03;4979327;28;20441;-79
2023/01/04 05:03:12;;;;;;;18.33;11.70;;;;;;;5.44;77.44;95803.44;4967322;28;20027;-80
2023/01/04 05:05:38;;;;;;;16.05;10.80;;;;;;;5.50;76.98;95806.53;4970828;28;20114;-79
2023/01/04 05:08:03;;;;;;;17.00;10.48;;;;;;;5.63;76.79;95816.25;4954112;28;20107;-79
2023/01/04 05:10:29;;;;;;;16.25;10.10;;;;;;;5.73;76.00;95813.19;4945819;28;20074;-77
2023/01/04 05:13:00;;;;;;;17.80;11.40;;;;;;;5.73;75.75;95820.09;4969961;28;20031;-77
2023/01/04 05:15:26;;;;;;;;;;;;;;;5.73;75.25;95818.34;4960838;28;20042;-77
2023/01/04 05:17:52;;;;;;;19.65;12.63;;;;;;;5.63;74.90;95811.09;4971482;28;19914;-76
2023/01/04 05:20:17;;;;;;;19.52;12.85;;;;;;;5.70;75.01;95815.06;4968090;28;20042;-76
2023/01/04 05:22:43;;;;;;;30.90;18.40;;;;;;;5.50;74.96;95821.19;4951620;29;20023;-77
2023/01/04 05:25:08;;;;;;;32.38;17.00;;;;;;;5.41;75.32;95813.88;4953606;28;20482;-76
2023/01/04 05:27:35;;;;;;;31.98;16.05;;;;;;;5.52;75.54;95820.19;4953086;28;20031;-76
2023/01/04 05:32:44;;;;;;;20.83;13.23;;;;;;;5.37;76.84;95806.28;4992763;28;20142;-77
2023/01/04 05:35:10;;;;;;;21.42;13.77;;;;;;;5.46;77.23;95811.91;4966608;28;20491;-77
2023/01/04 05:37:35;;;;;;;19.85;13.95;;;;;;;5.36;78.61;95822.66;4950542;28;20532;-77
2023/01/04 05:40:01;;;;;;;24.73;15.05;;;;;;;5.51;77.63;95823.66;4960423;28;20038;-77
2023/01/04 05:42:26;;;;;;;74.57;32.92;;;;;;;5.30;76.76;95819.53;4982379;28;20498;-77
2023/01/04 05:44:56;;;;;;;92.00;39.17;;;;;;;5.41;76.40;95821.63;4951831;28;20458;-77
2023/01/04 05:47:21;;;;;;;37.00;19.55;;;;;;;5.43;76.41;95818.03;4950959;28;20037;-77
2023/01/04 05:49:47;;;;;;;22.48;13.52;;;;;;;5.46;77.32;95830.81;4965981;28;20043;-73
2023/01/04 05:52:13;;;;;;;24.33;15.07;;;;;;;5.56;76.09;95844.09;4950878;28;20046;-78
2023/01/04 05:54:38;;;;;;;22.55;14.52;;;;;;;5.60;75.79;95832.72;4967944;28;20509;-78
2023/01/04 05:57:04;;;;;;;24.25;14.40;;;;;;;5.69;75.74;95845.19;4952652;28;20034;-78
2023/01/04 05:59:29;;;;;;;21.02;13.23;;;;;;;5.64;76.22;95843.72;4964694;28;20046;-80
2023/01/04 06:01:55;;;;;;;17.60;11.75;;;;;;;5.76;75.80;95833.66;4933464;28;20490;-79
2023/01/04 06:04:20;;;;;;;18.20;11.43;;;;;;;5.78;76.37;95837.00;4969032;28;20565;-76
2023/01/04 06:06:45;;;;;;;17.02;11.38;;;;;;;5.81;76.08;95829.13;4963032;28;20556;-76
2023/01/04 06:09:11;;;;;;;17.85;12.32;;;;;;;5.74;76.41;95820.03;4953492;28;20525;-76
2023/01/04 06:11:36;;;;;;;18.60;12.50;;;;;;;5.89;75.76;95835.66;4954968;29;20469;-76
2023/01/04 06:14:02;;;;;;;20.10;12.55;;;;;;;5.96;75.78;95834.47;4957950;28;20045;-76
2023/01/04 06:16:27;;;;;;;17.70;11.27;;;;;;;6.01;75.38;95835.91;4968827;28;20053;-76
2023/01/04 06:18:53;;;;;;;46.08;24.70;;;;;;;6.09;75.09;95845.03;4974043;28;20061;-76
2023/01/04 06:21:18;;;;;;;38.70;22.52;;;;;;;6.15;74.87;95844.75;4967341;28;20034;-76
2023/01/04 06:23:43;;;;;;;37.22;21.42;;;;;;;6.14;74.87;95846.50;4969251;28;20056;-76
2023/01/04 06:26:09;;;;;;;48.63;25.60;;;;;;;6.09;74.54;95848.44;4953018;29;20034;-76
2023/01/04 06:28:34;;;;;;;44.50;23.50;;;;;;;6.15;74.49;95839.56;4969104;28;20470;-76
2023/01/04 06:31:04;;;;;;;58.75;28.05;;;;;;;6.07;74.22;95833.94;4952976;29;20489;-76
2023/01/04 06:33:29;;;;;;;44.60;23.25;;;;;;;6.13;74.64;95847.41;4958531;28;20050;-76
2023/01/04 06:35:55;;;;;;;67.38;35.40;;;;;;;6.25;74.42;95853.72;4974788;28;20069;-76
2023/01/04 06:38:21;;;;;;;44.28;25.75;;;;;;;6.28;74.11;95850.13;4975185;28;20027;-76
2023/01/04 06:40:46;;;;;;;29.13;18.58;;;;;;;6.36;73.90;95860.91;4973745;28;20031;-76
2023/01/04 06:43:12;;;;;;;20.63;14.15;;;;;;;6.41;74.13;95862.38;4974248;28;20027;-76
2023/01/04 06:45:37;;;;;;;16.70;11.25;;;;;;;6.37;74.13;95857.41;4975102;28;20051;-76
2023/01/04 06:48:03;;;;;;;17.52;11.48;;;;;;;6.45;73.85;95863.03;4973575;28;20031;-76
2023/01/04 06:50:28;;;;;;;19.70;13.40;;;;;;;6.55;73.44;95868.59;4973977;28;20047;-76
2023/01/04 06:52:54;;;;;;;20.80;11.70;;;;;;;6.53;73.50;95857.50;4975114;28;20035;-76
2023/01/04 06:55:19;;;;;;;21.50;12.25;;;;;;;6.60;73.42;95871.75;4973952;28;20046;-76
2023/01/04 06:57:44;;;;;;;19.10;12.40;;;;;;;6.64;73.02;95856.03;4955850;28;20043;-76
2023/01/04 07:00:11;;;;;;;20.90;11.70;;;;;;;6.54;73.63;95862.56;4978419;28;20034;-76
2023/01/04 07:02:36;;;;;;;15.85;10.52;;;;;;;6.59;73.39;95852.84;4940502;28;20121;-76
2023/01/04 07:05:02;;;;;;;16.15;10.63;;;;;;;6.58;73.08;95851.19;4988449;28;20041;-77
2023/01/04 07:07:27;;;;;;;15.48;11.10;;;;;;;6.64;72.83;95862.94;4969983;28;20065;-76
2023/01/04 07:09:52;;;;;;;16.23;10.57;;;;;;;6.65;73.06;95860.28;4970747;28;20042;-76
2023/01/04 07:12:18;;;;;;;14.48;9.73;;;;;;;6.61;72.68;95861.34;4949705;28;20086;-79
2023/01/04 07:14:43;;;;;;;15.02;9.98;;;;;;;6.72;72.28;95865.97;4956375;28;20046;-80
2023/01/04 07:17:09;;;;;;;14.32;9.63;;;;;;;6.76;72.46;95871.81;4967051;28;20131;-81
2023/01/04 07:19:34;;;;;;;16.85;10.75;;;;;;;6.88;71.70;95866.88;4926413;28;20035;-80
2023/01/04 07:22:00;;;;;;;13.18;9.68;;;;;;;6.82;72.23;95862.00;4969447;28;20024;-80
2023/01/04 07:24:26;;;;;;;13.73;9.57;;;;;;;6.94;71.63;95886.38;4972168;28;20109;-80
2023/01/04 07:26:51;;;;;;;15.25;9.77;;;;;;;6.95;71.44;95885.47;4966164;28;20043;-80
2023/01/04 07:29:17;;;;;;;15.07;10.57;;;;;;;7.04;71.29;95887.56;4989539;28;20568;-80
2023/01/04 07:31:43;;;;;;;14.45;9.90;;;;;;;6.84;71.26;95880.00;4989076;28;20062;-80
2023/01/04 07:34:09;;;;;;;15.77;10.52;;;;;;;7.04;71.19;95897.91;4972797;28;20042;-80
2023/01/04 07:36:34;;;;;;;18.60;11.57;;;;;;;6.97;70.83;95878.47;4989002;28;20085;-78
2023/01/04 07:39:00;;;;;;;16.67;9.93;;;;;;;7.12;70.65;95900.09;4972945;28;20046;-80
2023/01/04 07:41:25;;;;;;;16.88;11.20;;;;;;;7.20;70.43;95894.53;4972620;28;20027;-80
2023/01/04 07:43:51;;;;;;;13.02;9.73;;;;;;;7.10;71.02;95899.31;4956795;28;20038;-80
2023/01/04 07:46:16;;;;;;;15.85;10.48;;;;;;;7.03;71.11;95901.41;4972688;28;20042;-80
2023/01/04 07:48:42;;;;;;;16.02;10.20;;;;;;;7.08;70.75;95896.00;4973181;28;20071;-80
2023/01/04 07:51:07;;;;;;;19.92;11.52;;;;;;;7.16;70.95;95897.28;4973266;28;20042;-80
2023/01/04 07:53:33;;;;;;;17.40;10.68;;;;;;;7.26;70.62;95889.88;4973630;28;20482;-80
2023/01/04 07:55:58;;;;;;;17.67;11.15;;;;;;;7.23;70.32;95884.84;4972747;28;20030;-79
2023/01/04 07:58:24;;;;;;;17.48;11.15;;;;;;;7.18;70.49;95898.94;4988817;28;20492;-80
2023/01/04 08:00:50;;;;;;;16.77;10.73;;;;;;;7.30;69.97;95898.28;4972661;28;20027;-78
2023/01/04 08:03:15;;;;;;;15.48;11.40;;;;;;;7.38;70.22;95901.31;4973340;28;20432;-80
2023/01/04 08:05:41;;;;;;;16.63;10.85;;;;;;;7.33;70.01;95903.31;4956319;28;20133;-80
2023/01/04 08:08:06;;;;;;;14.85;10.32;;;;;;;7.07;70.38;95887.41;4972441;28;20034;-80
2023/01/04 08:10:32;;;;;;;13.57;10.20;;;;;;;7.24;70.11;95898.59;4974084;28;20035;-80
2023/01/04 08:13:00;;;;;;;17.65;9.38;;;;;;;7.36;69.75;95895.41;4972104;28;20038;-79
2023/01/04 08:15:26;;;;;;;13.27;9.00;;;;;;;7.42;69.52;95908.00;4972348;28;20500;-80
2023/01/04 08:17:51;;;;;;;14.82;8.80;;;;;;;7.47;69.37;95900.84;4972280;28;20039;-80
2023/01/04 08:20:17;;;;;;;13.52;9.63;;;;;;;7.37;69.80;95900.47;4973812;28;20408;-80
2023/01/04 08:22:43;;;;;;;15.18;9.40;;;;;;;7.41;69.59;95895.13;4971722;28;20508;-80
2023/01/04 08:25:08;;;;;;;12.85;9.27;;;;;;;7.51;69.21;95907.50;4972145;28;20031;-78
2023/01/04 08:27:34;;;;;;;13.48;9.25;;;;;;;7.38;69.26;95903.88;4973219;28;20049;-79
2023/01/04 08:29:59;;;;;;;20.00;11.45;;;;;;;7.41;69.38;95900.31;4972337;28;20493;-80
2023/01/04 08:32:25;;;;;;;21.08;12.00;;;;;;;7.51;69.21;95906.66;4971026;28;20027;-80
2023/01/04 08:34:50;;;;;;;25.45;13.45;;;;;;;7.61;68.73;95907.84;4972330;28;20042;-80
2023/01/04 08:37:16;;;;;;;16.67;10.65;;;;;;;7.45;68.79;95894.91;4972014;28;20114;-80
2023/01/04 08:39:41;;;;;;;13.88;9.40;;;;;;;7.58;68.61;95901.09;4988118;28;20042;-80
2023/01/04 08:42:07;;;;;;;13.30;10.00;;;;;;;7.56;68.65;95910.69;4971657;28;20113;-80
2023/01/04 08:44:33;;;;;;;13.65;9.57;;;;;;;7.63;68.27;95903.41;4972111;28;20046;-80
2023/01/04 08:46:59;;;;;;;12.75;9.63;;;;;;;7.61;67.91;95911.28;4987804;28;20097;-80
2023/01/04 08:49:25;;;;;;;12.85;8.90;;;;;;;7.49;68.38;95911.06;4988051;28;20034;-80
2023/01/04 08:51:50;;;;;;;13.50;8.98;;;;;;;7.51;68.24;95902.31;4971453;28;20031;-80
2023/01/04 08:54:16;;;;;;;19.20;10.98;;;;;;;7.57;68.34;95906.34;4954525;28;20039;-80
2023/01/04 08:56:41;;;;;;;16.50;9.63;;;;;;;7.61;68.39;95918.19;4972544;28;20030;-80
2023/01/04 08:59:08;;;;;;;15.45;8.77;;;;;;;7.57;68.24;95907.16;4971591;28;20054;-80
2023/01/04 09:01:34;;;;;;;13.88;9.30;;;;;;;7.58;68.25;95915.78;4955198;28;20027;-80
2023/01/04 09:03:59;;;;;;;13.65;9.90;;;;;;;7.71;68.54;95913.34;4972002;28;20397;-80
2023/01/04 09:06:25;;;;;;;14.75;9.90;;;;;;;7.59;68.52;95909.69;4955759;28;20022;-78
2023/01/04 09:08:51;;;;;;;13.68;9.05;;;;;;;7.71;68.55;95926.28;4971254;28;20027;-80
2023/01/04 09:11:20;;;;;;;13.13;8.73;;;;;;;7.50;68.44;95905.84;4971511;28;20062;-79
2023/01/04 09:13:45;;;;;;;15.25;10.20;;;;;;;7.44;68.72;95903.59;4971219;28;20043;-80
2023/01/04 09:16:15;;;;;;;17.55;11.57;;;;;;;7.59;68.60;95913.09;4939576;28;20123;-79
2023/01/04 09:18:41;;;;;;;22.20;14.82;;;;;;;7.52;68.48;95904.00;4971471;28;20045;-80
2023/01/04 09:21:08;;;;;;;17.80;12.32;;;;;;;7.61;68.47;95907.84;4971199;28;20031;-79
2023/01/04 09:23:34;;;;;;;13.98;10.80;;;;;;;7.68;68.58;95903.16;4955413;28;20066;-79
2023/01/04 09:26:26;;;;;;;15.43;10.27;;;;;;;7.61;68.48;95903.50;4971622;28;20113;-79
2023/01/04 09:28:52;;;;;;;14.27;9.80;;;;;;;7.65;68.60;95900.75;4971402;28;20076;-79
2023/01/04 09:31:20;;;;;;;13.95;9.52;;;;;;;7.70;68.00;95896.19;4971184;28;20504;-78
2023/01/04 09:33:45;;;;;;;14.63;10.07;;;;;;;7.67;67.67;95886.81;4972305;28;20035;-79
2023/01/04 09:36:15;;;;;;;14.93;9.80;;;;;;;7.86;67.85;95893.59;4955297;28;20054;-78
2023/01/04 09:38:41;;;;;;;15.95;10.05;;;;;;;7.88;67.17;95895.16;4955092;28;20042;-78
2023/01/04 09:41:09;;;;;;;14.77;10.38;;;;;;;7.79;67.70;95890.50;4971633;28;20412;-78
2023/01/04 09:43:57;;;;;;;16.98;10.57;;;;;;;7.81;67.71;95891.25;4974229;28;20410;-78
2023/01/04 09:46:40;;;;;;;16.80;9.68;;;;;;;7.77;67.37;95887.16;4974760;28;20030;-78
2023/01/04 09:49:24;;;;;;;15.77;10.18;;;;;;;7.78;67.38;95888.84;4974756;28;20047;-79
2023/01/04 09:52:10;;;;;;;15.07;10.15;;;;;;;7.78;67.53;95905.19;4976073;28;20031;-79
2023/01/04 09:54:43;;;;;;;20.02;11.52;;;;;;;7.75;67.58;95887.25;4976162;28;20042;-79
2023/01/04 09:57:17;;;;;;;15.68;10.00;;;;;;;7.64;67.61;95899.09;4974734;28;20082;-78
2023/01/04 09:59:42;;;;;;;18.25;9.70;;;;;;;7.49;67.84;95880.88;4974914;28;20074;-79
2023/01/04 10:02:11;;;;;;;13.80;9.65;;;;;;;7.65;67.09;95891.25;4974902;28;20054;-78
2023/01/04 10:04:43;;;;;;;16.05;10.18;;;;;;;7.73;66.91;95885.66;4974809;28;20618;-79
2023/01/04 10:07:11;;;;;;;;;;;;;;;7.76;67.37;95885.50;4976227;28;20519;-79
2023/01/04 10:09:36;;;;;;;13.75;9.05;;;;;;;7.72;67.13;95899.53;4958579;28;20344;-79
2023/01/04 10:12:18;;;;;;;13.75;8.40;;;;;;;7.66;66.56;95868.78;4974650;28;20082;-78
2023/01/04 10:15:20;;;;;;;15.90;10.63;;;;;;;7.73;66.71;95880.47;4976002;28;20038;-79
2023/01/04 10:18:04;;;;;;;15.30;9.02;;;;;;;7.76;66.94;95877.72;4974629;28;20027;-79
2023/01/04 10:20:40;;;;;;;15.60;10.20;;;;;;;7.84;67.21;95884.16;4974733;28;20042;-79
2023/01/04 10:23:27;;;;;;;14.57;9.98;;;;;;;7.92;67.18;95882.91;4974357;28;20505;-79
2023/01/04 10:25:57;;;;;;;17.65;11.88;;;;;;;7.93;66.77;95884.56;4975529;28;20077;-79
2023/01/04 10:28:38;;;;;;;15.50;10.55;;;;;;;7.92;66.73;95881.13;4974263;28;20110;-79
2023/01/04 10:31:41;;;;;;;15.27;10.95;;;;;;;7.84;67.08;95891.06;4974099;28;20026;-79
2023/01/04 10:34:32;;;;;;;16.63;10.82;;;;;;;7.95;66.27;95885.31;4975750;28;20069;-75
2023/01/04 10:37:26;;;;;;;17.52;11.38;;;;;;;7.98;66.71;95885.97;4974131;28;20033;-77
2023/01/04 10:39:55;;;;;;;14.82;9.98;;;;;;;7.98;65.98;95880.78;4973043;28;20564;-77
2023/01/04 10:42:28;;;;;;;15.05;9.77;;;;;;;7.83;66.66;95872.13;4974189;28;20031;-77
2023/01/04 10:45:14;;;;;;;13.73;9.15;;;;;;;7.91;66.14;95879.47;4973871;28;20039;-77
2023/01/04 10:47:45;;;;;;;14.52;9.77;;;;;;;7.95;66.22;95878.38;4973762;28;20395;-77
2023/01/04 10:50:13;;;;;;;;;;;;;;;7.84;66.85;95881.56;4974555;28;20043;-77
2023/01/04 10:52:43;;;;;;;52.00;31.95;;;;;;;7.66;67.67;95877.41;4973732;28;19921;-77
2023/01/04 10:55:30;;;;;;;22.85;14.90;;;;;;;7.89;66.94;95880.50;4973280;28;20022;-77
2023/01/04 10:58:05;;;;;;;31.60;17.00;;;;;;;7.94;66.55;95879.31;4973694;28;20049;-77
2023/01/04 11:00:38;;;;;;;20.52;12.20;;;;;;;7.94;66.65;95874.13;4957864;28;20113;-77
2023/01/04 11:03:41;;;;;;;19.42;11.38;;;;;;;8.00;66.86;95876.38;4973357;28;20428;-77
2023/01/04 11:06:20;;;;;;;16.67;10.57;;;;;;;7.90;66.88;95864.84;4974823;28;20073;-77
2023/01/04 11:08:58;;;;;;;15.38;10.65;;;;;;;7.93;67.01;95869.03;4958401;28;20497;-77
2023/01/04 11:11:39;;;;;;;15.68;11.15;;;;;;;7.90;66.89;95875.22;4974393;28;20030;-77
2023/01/04 11:14:05;;;;;;;16.92;11.02;;;;;;;7.87;67.13;95862.44;4957116;28;20035;-77
2023/01/04 11:16:30;;;;;;;14.70;10.80;;;;;;;7.93;66.90;95854.34;4973561;28;20030;-77
2023/01/04 11:18:56;;;;;;;16.58;9.90;;;;;;;7.93;66.95;95862.09;4973247;28;20042;-77
2023/01/04 11:21:24;;;;;;;17.58;11.00;;;;;;;7.99;66.56;95866.94;4973454;28;20034;-77
2023/01/04 11:23:50;;;;;;;17.65;11.15;;;;;;;8.06;66.87;95857.09;4973051;28;20035;-77
2023/01/04 11:26:20;;;;;;;13.73;9.88;;;;;;;8.08;66.43;95844.91;4973278;28;20034;-77
2023/01/04 11:28:56;;;;;;;19.23;11.90;;;;;;;8.19;66.61;95847.72;4973407;28;20139;-77
2023/01/04 11:31:26;;;;;;;63.47;24.17;;;;;;;8.18;66.47;95840.84;4973057;28;20357;-77
2023/01/04 11:33:59;;;;;;;64.93;25.13;;;;;;;8.15;67.29;95824.66;4973166;28;20039;-77
2023/01/04 11:36:38;;;;;;;17.52;11.23;;;;;;;8.32;66.91;95828.88;4972827;28;20440;-77
2023/01/04 11:39:20;;;;;;;17.50;10.82;;;;;;;8.27;66.84;95831.72;4972881;28;20114;-77
2023/01/04 11:41:55;;;;;;;16.38;10.07;;;;;;;8.25;66.77;95828.41;4957456;28;20046;-77
2023/01/04 11:44:21;;;;;;;15.88;11.00;;;;;;;8.38;66.28;95831.09;4974662;28;20378;-77
2023/01/04 11:46:48;;;;;;;17.40;11.35;;;;;;;8.34;66.50;95835.63;4972883;28;20027;-77
2023/01/04 11:49:19;;;;;;;15.85;11.20;;;;;;;8.41;66.17;95830.94;4972991;28;20057;-77
2023/01/04 11:51:45;;;;;;;14.65;10.98;;;;;;;8.47;66.01;95821.09;4973689;28;20037;-77
2023/01/04 11:54:13;;;;;;;14.27;10.35;;;;;;;8.46;65.82;95823.75;4972893;28;20039;-77
2023/01/04 11:56:39;;;;;;;14.52;10.43;;;;;;;8.38;65.62;95806.03;4974039;28;20085;-77
2023/01/04 11:59:08;;;;;;;13.98;10.35;;;;;;;8.55;65.64;95817.19;4940852;28;20066;-78
2023/01/04 12:01:35;;;;;;;16.10;11.25;;;;;;;8.47;65.46;95815.09;4974256;28;20034;-77
2023/01/04 12:04:01;;;;;;;15.73;9.85;;;;;;;8.51;65.00;95811.38;4956412;28;20501;-77
2023/01/04 12:06:50;;;;;;;13.63;9.40;;;;;;;8.56;65.06;95818.88;4971876;28;20034;-77
2023/01/04 12:09:16;;;;;;;14.32;10.45;;;;;;;8.56;64.63;95813.72;4973944;28;20034;-78
2023/01/04 12:11:52;;;;;;;13.73;9.30;;;;;;;8.47;64.36;95805.56;4972464;28;20134;-77
2023/01/04 12:14:26;;;;;;;14.07;9.35;;;;;;;8.55;64.30;95812.84;4972715;28;20066;-77
2023/01/04 12:17:03;;;;;;;12.75;9.52;;;;;;;8.55;64.52;95810.25;4971972;28;20493;-77
2023/01/04 12:19:29;;;;;;;12.60;9.23;;;;;;;8.47;64.73;95815.91;4973390;28;20039;-77
2023/01/04 12:21:56;;;;;;;13.38;8.70;;;;;;;8.51;64.51;95813.97;4971932;28;20461;-78
2023/01/04 12:24:24;;;;;;;12.55;9.05;;;;;;;8.47;64.47;95805.56;4955933;28;20046;-77